Time;durP1;ratioP1;P1;durP2;ratioP2;P2;SDS_P1;SDS_P2;PMS_P1;PMS_P2;Temp;Humidity;BMP_temperature;BMP_pressure;BME280_temperature;BME280_humidity;BME280_pressure;Samples;Min_cycle;Max_cycle;Signal;HPM_P1;HPM_P2
2022/12/08 00:01:46;;;;;;;16.83;12.50;;;0.60;99.90;;;;;;5018421;28;20204;-71
2022/12/08 00:04:11;;;;;;;14.17;11.17;;;0.70;99.90;;;;;;5012305;28;20275;-71
2022/12/08 00:09:30;;;;;;;16.03;12.70;;;0.80;99.90;;;;;;5012763;28;20235;-71
2022/12/08 00:12:03;;;;;;;15.70;12.60;;;0.70;99.90;;;;;;5011371;28;20173;-71
2022/12/08 00:14:32;;;;;;;13.67;12.27;;;0.70;99.90;;;;;;5005558;28;20181;-71
2022/12/08 00:16:58;;;;;;;16.10;13.20;;;0.70;99.90;;;;;;5020314;28;20285;-70
2022/12/08 00:19:25;;;;;;;16.03;12.17;;;0.70;99.90;;;;;;5012942;28;20230;-71
2022/12/08 00:21:51;;;;;;;17.13;13.53;;;0.60;99.90;;;;;;5009627;28;20185;-71
2022/12/08 00:24:17;;;;;;;15.17;12.27;;;0.50;99.90;;;;;;5007413;28;20654;-71
2022/12/08 00:26:44;;;;;;;15.33;12.17;;;0.50;99.90;;;;;;5015704;28;20271;-71
2022/12/08 00:29:09;;;;;;;14.67;12.10;;;0.50;99.90;;;;;;5010668;28;20677;-70
2022/12/08 00:31:35;;;;;;;13.93;11.57;;;0.40;99.90;;;;;;5014623;28;20251;-70
2022/12/08 00:34:01;;;;;;;13.53;11.93;;;0.40;99.90;;;;;;5007753;28;20181;-71
2022/12/08 00:36:27;;;;;;;13.67;11.67;;;0.30;99.90;;;;;;5001577;28;20181;-71
2022/12/08 00:38:53;;;;;;;15.35;11.02;;;0.30;99.90;;;;;;5010350;28;20332;-71
2022/12/08 00:44:09;;;;;;;14.67;11.80;;;0.10;99.90;;;;;;5010560;28;20199;-71
2022/12/08 00:46:35;;;;;;;15.10;11.57;;;0.20;99.90;;;;;;5015437;28;20189;-70
2022/12/08 00:49:02;;;;;;;14.37;11.80;;;0.10;99.90;;;;;;5014103;28;20292;-70
2022/12/08 00:51:28;;;;;;;19.17;12.57;;;0.10;99.90;;;;;;5014993;28;20702;-71
2022/12/08 00:53:53;;;;;;;16.97;12.23;;;0.00;99.90;;;;;;5014190;28;20172;-71
2022/12/08 00:56:19;;;;;;;16.20;11.97;;;0.00;99.90;;;;;;5015367;28;20272;-71
2022/12/08 00:58:44;;;;;;;16.07;12.30;;;0.00;99.90;;;;;;5015004;28;20200;-70
2022/12/08 01:01:11;;;;;;;14.20;10.83;;;0.00;99.90;;;;;;5006932;28;20193;-70
2022/12/08 01:03:36;;;;;;;15.37;12.10;;;0.00;99.90;;;;;;5019169;28;20189;-70
2022/12/08 01:06:03;;;;;;;14.20;11.00;;;0.00;99.90;;;;;;5013281;28;20543;-70
2022/12/08 01:08:29;;;;;;;15.50;11.50;;;-0.10;99.90;;;;;;5013018;28;20213;-70
2022/12/08 01:10:55;;;;;;;15.03;11.77;;;-0.10;99.90;;;;;;5018925;28;20213;-70
2022/12/08 01:13:20;;;;;;;13.57;11.93;;;-0.10;99.90;;;;;;5016754;28;20188;-70
2022/12/08 01:15:46;;;;;;;15.30;12.30;;;-0.10;99.90;;;;;;5015691;28;20236;-70
2022/12/08 01:18:12;;;;;;;13.97;12.13;;;-0.10;99.90;;;;;;5012202;28;20203;-70
2022/12/08 01:20:37;;;;;;;13.90;11.77;;;-0.10;99.90;;;;;;5020013;28;20204;-70
2022/12/08 01:23:03;;;;;;;15.27;12.30;;;-0.20;99.90;;;;;;5012947;28;20189;-70
2022/12/08 01:25:28;;;;;;;15.50;13.00;;;-0.20;99.90;;;;;;5015701;28;20542;-70
2022/12/08 01:27:54;;;;;;;14.73;12.10;;;-0.20;99.90;;;;;;5004915;28;20204;-71
2022/12/08 01:30:20;;;;;;;15.57;12.97;;;-0.20;99.90;;;;;;5021061;28;20280;-70
2022/12/08 01:32:46;;;;;;;17.90;13.47;;;-0.30;99.90;;;;;;5012956;28;20181;-71
2022/12/08 01:35:12;;;;;;;16.43;13.20;;;-0.20;99.90;;;;;;5010644;28;20200;-71
2022/12/08 01:37:38;;;;;;;19.97;14.33;;;-0.20;99.90;;;;;;5015121;28;20251;-71
2022/12/08 01:40:05;;;;;;;15.93;12.80;;;-0.20;99.90;;;;;;5026804;28;20180;-69
2022/12/08 01:42:33;;;;;;;17.13;14.07;;;-0.20;99.90;;;;;;5007026;28;20208;-70
2022/12/08 01:45:07;;;;;;;19.00;13.77;;;-0.10;99.90;;;;;;5011052;28;20196;-70
2022/12/08 01:47:41;;;;;;;18.70;13.23;;;-0.20;99.90;;;;;;5001712;28;20217;-70
2022/12/08 01:50:10;;;;;;;14.27;12.10;;;-0.10;99.90;;;;;;5011046;28;20195;-71
2022/12/08 01:53:04;;;;;;;18.07;13.23;;;-0.10;99.90;;;;;;5008881;28;20610;-71
2022/12/08 01:55:48;;;;;;;15.77;12.23;;;0.00;99.90;;;;;;5001399;28;20281;-70
2022/12/08 01:58:21;;;;;;;15.50;11.87;;;-0.10;99.90;;;;;;5017635;28;20259;-70
2022/12/08 02:00:49;;;;;;;17.50;12.47;;;-0.10;99.90;;;;;;5013507;28;20192;-70
2022/12/08 02:03:28;;;;;;;16.20;12.87;;;-0.10;99.90;;;;;;5013188;28;20280;-70
2022/12/08 02:05:54;;;;;;;15.80;12.03;;;-0.10;99.90;;;;;;5011077;28;20181;-71
2022/12/08 02:08:20;;;;;;;16.30;12.50;;;-0.10;99.90;;;;;;5018989;28;20224;-70
2022/12/08 02:10:46;;;;;;;17.03;12.87;;;-0.10;99.90;;;;;;5012334;28;20217;-70
2022/12/08 02:13:15;;;;;;;16.03;13.03;;;-0.10;99.90;;;;;;5011565;28;20227;-69
2022/12/08 02:15:58;;;;;;;16.40;13.03;;;-0.10;99.90;;;;;;5013407;28;20181;-70
2022/12/08 02:18:39;;;;;;;16.77;13.17;;;-0.10;99.90;;;;;;5006509;28;20201;-70
2022/12/08 02:21:32;;;;;;;16.40;13.20;;;-0.10;99.90;;;;;;5011250;28;20208;-69
2022/12/08 02:24:18;;;;;;;15.37;12.60;;;0.00;99.90;;;;;;5005700;28;20181;-70
2022/12/08 02:27:01;;;;;;;17.67;13.13;;;0.00;99.90;;;;;;5015293;28;20188;-69
2022/12/08 02:30:03;;;;;;;16.13;12.73;;;0.00;99.90;;;;;;5016280;28;20269;-70
2022/12/08 02:32:51;;;;;;;17.70;13.03;;;0.00;99.90;;;;;;5009444;28;20189;-69
2022/12/08 02:35:40;;;;;;;15.70;13.50;;;0.00;99.90;;;;;;5010931;28;20217;-70
2022/12/08 02:38:18;;;;;;;20.97;13.07;;;0.00;99.90;;;;;;5013412;28;20208;-71
2022/12/08 02:41:09;;;;;;;19.27;13.10;;;0.10;99.90;;;;;;5020850;28;20263;-70
2022/12/08 02:43:44;;;;;;;19.80;13.80;;;0.00;99.90;;;;;;5004973;28;20193;-70
2022/12/08 02:46:20;;;;;;;22.60;15.37;;;0.00;99.90;;;;;;4997707;28;20677;-70
2022/12/08 02:48:47;;;;;;;17.00;12.90;;;0.00;99.90;;;;;;4999587;28;20209;-70
2022/12/08 02:51:12;;;;;;;20.97;13.47;;;0.10;99.90;;;;;;5018085;28;20630;-71
2022/12/08 02:53:39;;;;;;;19.50;13.47;;;0.10;99.90;;;;;;5012620;28;20230;-71
2022/12/08 02:56:18;;;;;;;17.63;12.83;;;0.10;99.90;;;;;;5017304;28;20181;-70
2022/12/08 02:58:52;;;;;;;18.70;13.37;;;0.10;99.90;;;;;;5011529;28;20627;-71
2022/12/08 03:01:55;;;;;;;20.37;14.77;;;0.10;99.90;;;;;;5014155;28;20193;-71
2022/12/08 03:05:01;;;;;;;19.53;13.57;;;0.10;99.90;;;;;;5007657;28;20652;-70
2022/12/08 03:07:46;;;;;;;18.20;12.30;;;0.20;99.90;;;;;;5003957;28;20319;-70
2022/12/08 03:10:16;;;;;;;16.30;12.40;;;0.10;99.90;;;;;;5007465;28;20991;-71
2022/12/08 03:12:48;;;;;;;18.73;13.63;;;0.20;99.90;;;;;;5011562;28;20292;-70
2022/12/08 03:15:18;;;;;;;15.43;12.23;;;0.20;99.90;;;;;;5019195;28;20180;-71
2022/12/08 03:17:49;;;;;;;16.93;12.80;;;0.30;99.90;;;;;;5012078;28;20225;-72
2022/12/08 03:20:19;;;;;;;16.40;13.30;;;0.30;99.90;;;;;;5014310;28;20538;-72
2022/12/08 03:22:47;;;;;;;16.30;12.37;;;0.30;99.90;;;;;;5012418;28;20663;-71
2022/12/08 03:25:16;;;;;;;14.57;11.87;;;0.20;99.90;;;;;;5009830;28;20192;-71
2022/12/08 03:27:42;;;;;;;16.07;12.43;;;0.20;99.90;;;;;;5015877;28;20213;-71
2022/12/08 03:30:09;;;;;;;16.00;12.83;;;0.20;99.90;;;;;;5009506;28;20209;-71
2022/12/08 03:32:55;;;;;;;14.37;12.47;;;0.30;99.90;;;;;;5012423;28;20185;-71
2022/12/08 03:35:24;;;;;;;14.77;12.33;;;0.20;99.90;;;;;;5014738;28;20184;-71
2022/12/08 03:37:50;;;;;;;15.13;12.67;;;0.20;99.90;;;;;;5007442;28;20212;-72
2022/12/08 03:40:18;;;;;;;16.70;12.10;;;0.20;99.90;;;;;;5013488;28;20184;-71
2022/12/08 03:42:44;;;;;;;16.20;13.10;;;0.20;99.90;;;;;;5010977;28;20525;-70
2022/12/08 03:45:10;;;;;;;17.77;13.63;;;0.10;99.90;;;;;;5011890;28;20195;-71
2022/12/08 03:47:36;;;;;;;14.10;12.17;;;0.00;99.90;;;;;;5018204;28;20679;-71
2022/12/08 03:50:01;;;;;;;17.27;12.67;;;0.10;99.90;;;;;;5008142;28;20949;-72
2022/12/08 03:52:27;;;;;;;16.07;11.43;;;0.10;99.90;;;;;;5006992;28;20182;-72
2022/12/08 03:54:53;;;;;;;16.63;11.37;;;0.10;99.90;;;;;;5008589;28;20188;-71
2022/12/08 03:57:18;;;;;;;16.47;10.90;;;0.10;99.90;;;;;;5015968;28;20201;-70
2022/12/08 03:59:44;;;;;;;13.97;11.43;;;0.10;99.90;;;;;;5020564;28;20598;-72
2022/12/08 04:02:09;;;;;;;13.43;11.43;;;0.10;99.90;;;;;;5009209;28;20280;-72
2022/12/08 04:04:35;;;;;;;14.20;11.97;;;0.10;99.90;;;;;;5012616;28;20181;-71
2022/12/08 04:07:00;;;;;;;15.53;11.70;;;0.10;99.90;;;;;;5014905;28;20287;-71
2022/12/08 04:09:26;;;;;;;14.73;11.60;;;0.00;99.90;;;;;;5020657;28;20173;-70
2022/12/08 04:11:51;;;;;;;17.77;12.43;;;0.00;99.90;;;;;;5016759;28;20221;-70
2022/12/08 04:14:17;;;;;;;14.53;11.43;;;0.10;99.90;;;;;;5014856;28;20177;-70
2022/12/08 04:16:43;;;;;;;16.30;12.57;;;0.10;99.90;;;;;;5018832;28;20232;-71
2022/12/08 04:19:08;;;;;;;15.07;11.90;;;0.20;99.90;;;;;;5012398;28;22066;-71
2022/12/08 04:21:34;;;;;;;16.10;12.87;;;0.20;99.90;;;;;;5011808;28;20264;-70
2022/12/08 04:23:59;;;;;;;14.63;12.93;;;0.30;99.90;;;;;;5017504;28;20184;-70
2022/12/08 04:26:25;;;;;;;15.63;12.13;;;0.30;99.90;;;;;;5007538;28;20651;-70
2022/12/08 04:28:50;;;;;;;17.37;12.43;;;0.30;99.90;;;;;;5007680;28;20236;-71
2022/12/08 04:31:16;;;;;;;15.90;12.40;;;0.30;99.90;;;;;;5013744;28;20202;-72
2022/12/08 04:33:43;;;;;;;15.13;12.37;;;0.30;99.90;;;;;;5008770;28;20188;-71
2022/12/08 04:36:08;;;;;;;16.77;13.00;;;0.30;99.90;;;;;;5023862;28;20192;-71
2022/12/08 04:38:34;;;;;;;15.67;12.90;;;0.20;99.90;;;;;;5016527;28;20695;-71
2022/12/08 04:41:00;;;;;;;16.77;13.10;;;0.10;99.90;;;;;;5014705;28;20220;-70
2022/12/08 04:43:26;;;;;;;18.77;14.20;;;0.00;99.90;;;;;;5013087;28;20173;-71
2022/12/08 04:45:52;;;;;;;16.53;12.73;;;-0.10;99.90;;;;;;5017931;28;20710;-70
2022/12/08 04:48:17;;;;;;;17.83;12.70;;;-0.10;99.90;;;;;;5021414;28;20213;-71
2022/12/08 04:50:44;;;;;;;16.17;13.07;;;-0.20;99.90;;;;;;5008438;28;20213;-71
2022/12/08 04:53:11;;;;;;;15.87;12.50;;;-0.30;99.90;;;;;;5012061;28;20178;-71
2022/12/08 04:55:39;;;;;;;18.90;13.33;;;-0.40;99.90;;;;;;5023698;28;20180;-70
2022/12/08 04:58:04;;;;;;;17.83;13.83;;;-0.40;99.90;;;;;;5016548;28;20675;-71
2022/12/08 05:00:30;;;;;;;13.80;12.27;;;-0.50;99.90;;;;;;5016776;28;20188;-71
2022/12/08 05:02:56;;;;;;;15.10;12.13;;;-0.50;99.90;;;;;;5015073;28;20183;-71
2022/12/08 05:05:21;;;;;;;15.60;12.00;;;-0.50;99.90;;;;;;5017080;28;20189;-72
2022/12/08 05:07:47;;;;;;;15.90;12.40;;;-0.60;99.90;;;;;;5015217;28;20274;-72
2022/12/08 05:10:12;;;;;;;17.37;12.87;;;-0.60;99.90;;;;;;5020356;28;20204;-71
2022/12/08 05:12:38;;;;;;;14.60;11.67;;;-0.70;99.90;;;;;;5009978;28;20177;-71
2022/12/08 05:15:04;;;;;;;17.33;12.03;;;-0.70;99.90;;;;;;5021047;28;20237;-71
2022/12/08 05:17:30;;;;;;;16.20;12.00;;;-0.70;99.90;;;;;;5021454;28;20666;-71
2022/12/08 05:19:55;;;;;;;19.27;13.10;;;-0.60;99.90;;;;;;5006694;28;20272;-71
2022/12/08 05:22:21;;;;;;;18.60;13.20;;;-0.60;99.90;;;;;;5023453;28;20185;-71
2022/12/08 05:24:46;;;;;;;20.27;14.23;;;-0.70;99.90;;;;;;5011318;28;20181;-72
2022/12/08 05:27:12;;;;;;;18.30;12.70;;;-0.70;99.90;;;;;;5011781;28;20197;-72
2022/12/08 05:29:38;;;;;;;16.50;12.70;;;-0.60;99.90;;;;;;5014955;28;20226;-71
2022/12/08 05:32:03;;;;;;;22.60;14.73;;;-0.50;99.90;;;;;;5013242;28;20201;-71
2022/12/08 05:34:29;;;;;;;22.27;15.27;;;-0.50;99.90;;;;;;5009265;28;20722;-71
2022/12/08 05:36:54;;;;;;;25.20;15.20;;;-0.50;99.90;;;;;;5009783;28;20196;-71
2022/12/08 05:39:20;;;;;;;18.70;14.60;;;-0.40;99.90;;;;;;5009075;28;20546;-71
2022/12/08 05:41:46;;;;;;;19.03;14.50;;;-0.30;99.90;;;;;;5006139;28;20189;-71
2022/12/08 05:44:11;;;;;;;19.97;15.07;;;-0.30;99.90;;;;;;5022485;28;20734;-71
2022/12/08 05:46:37;;;;;;;19.97;13.77;;;-0.20;99.90;;;;;;5020400;28;20553;-72
2022/12/08 05:49:03;;;;;;;18.77;13.87;;;-0.20;99.90;;;;;;5014431;28;20236;-72
2022/12/08 05:51:28;;;;;;;20.67;14.90;;;-0.30;99.90;;;;;;5008771;28;20212;-72
2022/12/08 05:53:54;;;;;;;17.70;13.07;;;-0.20;99.90;;;;;;5006661;28;20729;-71
2022/12/08 05:56:21;;;;;;;16.40;13.30;;;-0.20;99.90;;;;;;5007955;28;20177;-71
2022/12/08 05:58:48;;;;;;;15.87;12.60;;;-0.30;99.90;;;;;;5011706;28;20565;-71
2022/12/08 06:01:29;;;;;;;22.13;14.60;;;-0.30;99.90;;;;;;5008440;28;20642;-71
2022/12/08 06:03:57;;;;;;;17.63;12.53;;;-0.40;99.90;;;;;;5010079;28;20261;-72
2022/12/08 06:06:23;;;;;;;17.67;12.87;;;-0.50;99.90;;;;;;4998999;28;20190;-71
2022/12/08 06:08:49;;;;;;;17.10;12.70;;;-0.60;99.90;;;;;;5009997;28;20670;-72
2022/12/08 06:11:26;;;;;;;18.63;14.03;;;-0.60;99.90;;;;;;5015625;28;20201;-71
2022/12/08 06:13:53;;;;;;;20.70;14.20;;;-0.50;99.90;;;;;;5012463;28;20204;-71
2022/12/08 06:16:19;;;;;;;16.57;13.27;;;-0.50;99.90;;;;;;5011466;28;20180;-71
2022/12/08 06:18:45;;;;;;;19.53;14.03;;;-0.40;99.90;;;;;;5009267;28;20267;-71
2022/12/08 06:21:13;;;;;;;21.03;15.90;;;-0.30;99.90;;;;;;5009574;28;20260;-71
2022/12/08 06:23:38;;;;;;;21.63;15.60;;;-0.20;99.90;;;;;;5007995;28;20181;-71
2022/12/08 06:26:13;;;;;;;22.13;15.70;;;-0.20;99.90;;;;;;5022498;28;20651;-71
2022/12/08 06:28:39;;;;;;;21.83;15.97;;;-0.10;99.90;;;;;;5018298;28;20203;-71
2022/12/08 06:31:12;;;;;;;18.47;14.57;;;-0.20;99.90;;;;;;5005639;28;20205;-71
2022/12/08 06:33:38;;;;;;;20.93;16.00;;;-0.30;99.90;;;;;;5005569;28;20177;-71
2022/12/08 06:36:06;;;;;;;18.53;14.13;;;-0.50;99.90;;;;;;5011898;28;20177;-71
2022/12/08 06:38:33;;;;;;;21.07;14.50;;;-0.40;99.90;;;;;;5017321;28;20957;-72
2022/12/08 06:40:59;;;;;;;16.97;13.63;;;-0.50;99.90;;;;;;5012934;28;20205;-71
2022/12/08 06:43:26;;;;;;;16.57;13.43;;;-0.60;99.90;;;;;;5010018;28;20228;-71
2022/12/08 06:45:51;;;;;;;19.67;13.47;;;-0.70;99.90;;;;;;5008521;28;20189;-71
2022/12/08 06:48:17;;;;;;;14.10;11.93;;;-0.70;99.90;;;;;;5012571;28;20200;-71
2022/12/08 06:50:43;;;;;;;17.80;14.23;;;-0.70;99.90;;;;;;5011160;28;20209;-71
2022/12/08 06:53:14;;;;;;;18.57;14.23;;;-0.80;99.90;;;;;;5011705;28;20206;-72
2022/12/08 06:55:51;;;;;;;15.57;12.97;;;-0.90;99.90;;;;;;5006294;28;20240;-71
2022/12/08 06:58:17;;;;;;;17.57;13.80;;;-0.90;99.90;;;;;;5010075;28;20201;-72
2022/12/08 07:00:43;;;;;;;19.70;13.30;;;-1.00;99.90;;;;;;5009666;28;20188;-71
2022/12/08 07:03:10;;;;;;;19.50;13.57;;;-1.00;99.90;;;;;;5004887;28;20189;-72
2022/12/08 07:05:36;;;;;;;17.70;13.53;;;-1.10;99.90;;;;;;5004144;28;20197;-72
2022/12/08 07:08:03;;;;;;;18.37;13.50;;;-1.10;99.90;;;;;;5007266;28;20213;-74
2022/12/08 07:10:29;;;;;;;20.93;15.17;;;-1.10;99.90;;;;;;5010575;28;20201;-73
2022/12/08 07:12:54;;;;;;;18.87;14.03;;;-1.10;99.90;;;;;;5009181;28;20174;-72
2022/12/08 07:15:20;;;;;;;21.47;15.17;;;-1.10;99.90;;;;;;5018102;28;20300;-74
2022/12/08 07:17:47;;;;;;;20.47;14.30;;;-1.00;99.90;;;;;;5012728;28;20675;-73
2022/12/08 07:20:13;;;;;;;19.43;14.37;;;-1.00;99.90;;;;;;5015269;28;20185;-72
2022/12/08 07:22:38;;;;;;;20.70;14.27;;;-1.00;99.90;;;;;;5005085;28;20208;-72
2022/12/08 07:25:05;;;;;;;21.00;14.70;;;-0.90;99.90;;;;;;5014012;28;20182;-72
2022/12/08 07:27:30;;;;;;;19.33;14.27;;;-0.80;99.90;;;;;;5007266;28;20213;-72
2022/12/08 07:29:56;;;;;;;20.83;14.97;;;-0.70;99.90;;;;;;5008790;28;20181;-72
2022/12/08 07:32:21;;;;;;;18.10;13.13;;;-0.60;99.90;;;;;;5010501;28;20177;-72
2022/12/08 07:34:47;;;;;;;17.47;14.27;;;-0.60;99.90;;;;;;5003953;28;20187;-73
2022/12/08 07:37:13;;;;;;;20.10;14.23;;;-0.60;99.90;;;;;;5010840;28;20247;-72
2022/12/08 07:39:38;;;;;;;20.10;14.83;;;-0.50;99.90;;;;;;5009941;28;20270;-72
2022/12/08 07:42:04;;;;;;;19.30;13.87;;;-0.50;99.90;;;;;;5008535;28;20174;-72
2022/12/08 07:44:30;;;;;;;19.87;14.77;;;-0.50;99.90;;;;;;5004103;28;20188;-72
2022/12/08 07:46:55;;;;;;;16.37;14.47;;;-0.40;99.90;;;;;;5007224;28;20188;-72
2022/12/08 07:49:21;;;;;;;18.63;14.43;;;-0.40;99.90;;;;;;5003978;28;20385;-71
2022/12/08 07:51:46;;;;;;;16.93;13.13;;;-0.30;99.90;;;;;;5008373;28;20236;-72
2022/12/08 07:54:12;;;;;;;17.50;13.23;;;-0.20;99.90;;;;;;5016967;28;20177;-74
2022/12/08 07:56:38;;;;;;;17.10;13.80;;;-0.20;99.90;;;;;;5000189;28;20177;-74
2022/12/08 07:59:04;;;;;;;19.63;13.77;;;-0.10;99.90;;;;;;5008899;28;20267;-72
2022/12/08 08:01:32;;;;;;;15.60;12.60;;;0.00;99.90;;;;;;5013585;28;20178;-72
2022/12/08 08:04:00;;;;;;;17.03;13.30;;;0.00;99.90;;;;;;5008573;28;20181;-74
2022/12/08 08:06:26;;;;;;;16.93;13.57;;;0.00;99.90;;;;;;5003772;28;20239;-72
2022/12/08 08:08:52;;;;;;;18.37;13.37;;;-0.10;99.90;;;;;;5006701;28;20300;-71
2022/12/08 08:11:18;;;;;;;17.63;13.37;;;0.00;99.90;;;;;;5004238;28;20275;-72
2022/12/08 08:13:44;;;;;;;19.20;13.43;;;0.00;99.90;;;;;;5007387;28;20520;-71
2022/12/08 08:16:12;;;;;;;17.80;13.70;;;0.00;99.90;;;;;;5013860;28;20234;-72
2022/12/08 08:18:38;;;;;;;15.97;13.53;;;0.00;99.90;;;;;;5005219;28;20586;-72
2022/12/08 08:21:03;;;;;;;16.83;12.53;;;0.00;99.90;;;;;;5007864;28;20643;-71
2022/12/08 08:23:29;;;;;;;17.37;13.20;;;0.10;99.90;;;;;;5005229;28;20182;-72
2022/12/08 08:25:59;;;;;;;16.10;12.63;;;0.10;99.90;;;;;;5002965;28;20177;-71
2022/12/08 08:28:25;;;;;;;16.80;13.20;;;0.20;99.90;;;;;;5018105;28;20208;-72
2022/12/08 08:30:50;;;;;;;17.77;14.20;;;0.30;99.90;;;;;;5005548;28;20711;-72
2022/12/08 08:33:16;;;;;;;16.57;13.23;;;0.40;99.90;;;;;;4995811;28;20186;-73
2022/12/08 08:35:42;;;;;;;21.03;14.60;;;0.50;99.90;;;;;;5019196;28;20177;-72
2022/12/08 08:38:07;;;;;;;16.60;13.80;;;0.60;99.90;;;;;;5010122;28;20193;-72
2022/12/08 08:40:33;;;;;;;16.60;13.10;;;0.70;99.90;;;;;;5004096;28;20184;-72
2022/12/08 08:43:03;;;;;;;20.43;14.83;;;0.80;99.90;;;;;;5015569;28;20169;-72
2022/12/08 08:45:29;;;;;;;17.17;13.50;;;0.90;99.90;;;;;;5007607;28;20185;-72
2022/12/08 08:47:55;;;;;;;16.73;13.53;;;1.00;99.90;;;;;;5018670;28;20684;-76
2022/12/08 08:50:21;;;;;;;17.43;13.17;;;1.10;99.90;;;;;;5008285;28;20731;-73
2022/12/08 08:52:46;;;;;;;17.03;13.27;;;1.30;99.90;;;;;;5006226;28;20324;-71
2022/12/08 08:55:12;;;;;;;15.90;12.83;;;1.40;99.90;;;;;;5011966;28;20185;-72
2022/12/08 08:57:37;;;;;;;15.77;12.73;;;1.70;99.90;;;;;;5012481;28;20252;-72
2022/12/08 09:00:04;;;;;;;17.00;11.90;;;1.90;99.90;;;;;;5013147;28;20188;-72
2022/12/08 09:02:30;;;;;;;15.87;12.63;;;2.20;99.90;;;;;;5005411;28;20178;-74
2022/12/08 09:04:55;;;;;;;14.65;11.95;;;2.40;99.90;;;;;;5016536;28;20566;-73
2022/12/08 09:07:21;;;;;;;14.15;11.75;;;2.50;99.90;;;;;;5008952;28;20299;-72
2022/12/08 09:09:47;;;;;;;13.45;11.43;;;2.50;99.90;;;;;;5023956;28;20218;-73
2022/12/08 09:12:13;;;;;;;13.20;11.70;;;2.50;99.90;;;;;;5021903;28;20239;-73
2022/12/08 09:14:38;;;;;;;11.43;10.02;;;2.70;99.90;;;;;;5015075;28;20177;-73
2022/12/08 09:17:05;;;;;;;13.45;11.32;;;2.90;99.90;;;;;;5014058;28;20288;-73
2022/12/08 09:19:31;;;;;;;14.30;11.75;;;2.90;99.90;;;;;;5009737;28;20224;-73
2022/12/08 09:21:57;;;;;;;15.38;11.80;;;2.90;99.90;;;;;;5008139;28;20182;-74
2022/12/08 09:24:22;;;;;;;13.80;11.43;;;2.80;99.90;;;;;;5004177;28;20555;-72
2022/12/08 09:26:48;;;;;;;13.20;11.48;;;2.80;99.90;;;;;;5011709;28;20185;-73
2022/12/08 09:29:16;;;;;;;12.38;11.13;;;2.70;99.90;;;;;;5020321;28;20184;-74
2022/12/08 09:31:42;;;;;;;12.93;11.10;;;2.80;99.90;;;;;;5012088;28;20561;-73
2022/12/08 09:34:10;;;;;;;14.05;11.65;;;2.70;99.90;;;;;;5012198;28;20714;-72
2022/12/08 09:36:35;;;;;;;16.02;12.20;;;2.70;99.90;;;;;;5018778;28;20652;-72
2022/12/08 09:39:01;;;;;;;17.50;12.48;;;2.70;99.90;;;;;;5012459;28;20205;-74
2022/12/08 09:41:36;;;;;;;13.77;12.23;;;2.90;99.90;;;;;;5015042;28;20186;-73
2022/12/08 09:44:50;;;;;;;14.95;12.07;;;3.20;99.90;;;;;;5007979;28;20247;-72
2022/12/08 09:47:29;;;;;;;15.02;11.75;;;3.50;99.90;;;;;;5006836;28;20282;-73
2022/12/08 09:50:14;;;;;;;14.27;11.98;;;3.50;99.90;;;;;;5010112;28;20216;-72
2022/12/08 09:53:07;;;;;;;14.77;11.57;;;3.60;99.90;;;;;;5009060;28;20215;-72
2022/12/08 09:55:38;;;;;;;14.30;12.13;;;3.90;99.90;;;;;;5017558;28;20180;-72
2022/12/08 09:58:11;;;;;;;15.90;11.50;;;4.00;99.90;;;;;;5009966;28;20197;-73
2022/12/08 10:00:36;;;;;;;13.98;11.70;;;4.10;99.90;;;;;;5010974;28;20550;-73
2022/12/08 10:03:02;;;;;;;14.75;12.20;;;4.30;99.90;;;;;;5011847;28;20271;-78
2022/12/08 10:05:32;;;;;;;16.33;11.25;;;4.50;99.90;;;;;;5011518;28;20187;-78
2022/12/08 10:08:12;;;;;;;15.07;12.80;;;4.80;99.90;;;;;;5010467;28;20209;-74
2022/12/08 10:10:58;;;;;;;12.55;10.90;;;4.90;99.90;;;;;;5020767;28;20205;-75
2022/12/08 10:13:57;;;;;;;14.90;11.98;;;5.00;99.90;;;;;;5013309;28;20196;-73
2022/12/08 10:16:27;;;;;;;17.63;12.15;;;5.10;99.90;;;;;;5017940;28;20226;-73
2022/12/08 10:19:01;;;;;;;16.08;13.30;;;5.00;99.90;;;;;;5009037;28;20213;-72
2022/12/08 10:21:29;;;;;;;16.25;12.77;;;4.90;99.90;;;;;;5004931;28;20657;-78
2022/12/08 10:24:04;;;;;;;15.48;12.23;;;4.70;99.90;;;;;;5014389;28;20199;-74
2022/12/08 10:26:31;;;;;;;16.73;13.23;;;4.70;99.90;;;;;;5014634;28;20180;-72
2022/12/08 10:29:01;;;;;;;17.90;13.10;;;4.70;99.90;;;;;;5021999;28;20562;-74
2022/12/08 10:31:29;;;;;;;17.23;13.50;;;4.90;99.90;;;;;;5009079;28;20215;-75
2022/12/08 10:34:08;;;;;;;15.48;13.30;;;5.10;99.90;;;;;;5007001;28;20180;-76
2022/12/08 10:36:50;;;;;;;16.38;13.23;;;5.30;99.90;;;;;;5005438;28;20200;-75
2022/12/08 10:39:36;;;;;;;18.98;14.55;;;5.60;99.90;;;;;;5000255;28;20541;-76
2022/12/08 10:42:17;;;;;;;16.63;12.63;;;5.80;99.90;;;;;;5000964;28;20177;-76
2022/12/08 10:44:51;;;;;;;17.40;13.10;;;6.10;99.90;;;;;;5002223;28;20298;-76
2022/12/08 10:47:20;;;;;;;15.35;12.32;;;6.30;99.90;;;;;;5003264;28;20212;-76
2022/12/08 10:49:46;;;;;;;16.60;12.48;;;6.20;99.90;;;;;;5005743;28;20188;-75
2022/12/08 10:52:22;;;;;;;18.45;14.85;;;6.10;99.90;;;;;;5007476;28;20209;-75
2022/12/08 10:54:59;;;;;;;20.35;14.35;;;5.90;99.90;;;;;;5008719;28;20178;-74
2022/12/08 10:57:24;;;;;;;19.85;13.65;;;5.70;99.90;;;;;;5010456;28;20212;-74
2022/12/08 10:59:54;;;;;;;19.20;15.35;;;5.40;99.90;;;;;;5010409;28;20648;-75
2022/12/08 11:02:20;;;;;;;17.52;14.57;;;5.10;99.90;;;;;;5006413;28;20192;-75
2022/12/08 11:04:46;;;;;;;17.63;12.15;;;5.00;99.90;;;;;;5006477;28;20177;-74
2022/12/08 11:07:21;;;;;;;22.90;15.07;;;4.90;99.90;;;;;;5009248;28;20571;-74
2022/12/08 11:09:51;;;;;;;19.92;15.55;;;4.80;99.90;;;;;;5012464;28;20315;-75
2022/12/08 11:12:22;;;;;;;19.50;15.20;;;4.80;99.90;;;;;;5009837;28;20267;-74
2022/12/08 11:14:49;;;;;;;19.67;15.38;;;4.80;99.90;;;;;;5003954;28;20665;-73
2022/12/08 11:17:17;;;;;;;19.92;15.80;;;4.90;99.90;;;;;;5005702;28;20340;-73
2022/12/08 11:19:55;;;;;;;21.42;16.10;;;5.10;99.90;;;;;;5004481;28;20177;-75
2022/12/08 11:22:53;;;;;;;19.80;14.38;;;5.20;99.90;;;;;;5009688;28;20186;-75
2022/12/08 11:25:26;;;;;;;20.05;16.13;;;5.50;99.90;;;;;;5004263;28;20723;-75
2022/12/08 11:27:56;;;;;;;19.70;15.40;;;5.70;99.90;;;;;;4999387;28;20201;-76
2022/12/08 11:30:26;;;;;;;20.63;15.55;;;5.80;99.90;;;;;;5006795;28;20212;-74
2022/12/08 11:33:02;;;;;;;23.00;16.38;;;5.90;99.90;;;;;;5001376;28;20256;-74
2022/12/08 11:35:40;;;;;;;19.70;15.90;;;5.80;99.90;;;;;;5008699;28;20178;-76
2022/12/08 11:38:23;;;;;;;20.73;15.63;;;5.70;99.90;;;;;;5009419;28;20680;-74
2022/12/08 11:41:04;;;;;;;21.38;14.25;;;5.70;99.90;;;;;;5005787;28;20192;-75
2022/12/08 11:43:38;;;;;;;19.42;16.42;;;5.90;99.90;;;;;;5003373;28;20201;-76
2022/12/08 11:46:19;;;;;;;20.02;16.48;;;5.90;99.90;;;;;;5023916;28;20548;-75
2022/12/08 11:49:00;;;;;;;19.35;15.02;;;6.10;99.90;;;;;;5007167;28;20679;-75
2022/12/08 11:51:36;;;;;;;21.27;16.13;;;6.00;99.90;;;;;;5014287;28;20239;-76
2022/12/08 11:54:25;;;;;;;18.20;14.73;;;5.80;99.90;;;;;;5006974;28;20204;-76
2022/12/08 11:56:53;;;;;;;20.38;14.88;;;5.50;99.90;;;;;;5007129;28;20188;-75
2022/12/08 11:59:33;;;;;;;19.23;15.50;;;5.30;99.90;;;;;;5005657;28;20221;-76
2022/12/08 12:02:00;;;;;;;19.48;13.57;;;5.20;99.90;;;;;;5009597;28;20180;-75
2022/12/08 12:04:40;;;;;;;18.65;15.25;;;5.20;99.90;;;;;;5001931;28;20182;-74
2022/12/08 12:07:18;;;;;;;18.10;14.30;;;5.10;99.90;;;;;;5009098;28;20217;-75
2022/12/08 12:10:08;;;;;;;18.63;14.35;;;5.20;99.90;;;;;;5012918;28;20190;-75
2022/12/08 12:12:45;;;;;;;17.80;14.35;;;5.40;99.90;;;;;;5015465;28;20204;-74
2022/12/08 12:15:19;;;;;;;15.13;10.05;;;5.40;99.90;;;;;;5008081;28;20602;-74
2022/12/08 12:17:45;;;;;;;18.83;14.25;;;5.40;99.90;;;;;;5022430;28;20247;-75
2022/12/08 12:20:31;;;;;;;18.13;14.15;;;5.20;99.90;;;;;;5005379;28;20543;-75
2022/12/08 12:23:17;;;;;;;18.00;13.73;;;5.00;99.90;;;;;;5004551;28;20179;-74
2022/12/08 12:26:04;;;;;;;18.42;15.02;;;4.80;99.90;;;;;;5005030;28;20188;-74
2022/12/08 12:29:04;;;;;;;19.13;14.13;;;4.60;99.90;;;;;;5009175;28;20197;-74
2022/12/08 12:31:36;;;;;;;21.10;15.57;;;4.50;99.90;;;;;;4995026;28;20249;-74
2022/12/08 12:34:21;;;;;;;20.77;15.73;;;4.50;99.90;;;;;;4998980;28;20178;-74
2022/12/08 12:36:52;;;;;;;18.40;15.30;;;4.40;99.90;;;;;;5009043;28;20551;-74
2022/12/08 12:39:22;;;;;;;20.65;15.73;;;4.50;99.90;;;;;;5007290;28;20181;-74
2022/12/08 12:41:54;;;;;;;22.65;13.77;;;4.30;99.90;;;;;;5012081;28;20182;-75
2022/12/08 12:44:32;;;;;;;17.45;13.20;;;4.10;99.90;;;;;;5015042;28;20197;-76
2022/12/08 12:47:00;;;;;;;21.35;15.65;;;3.90;99.90;;;;;;5011205;28;20235;-74
2022/12/08 12:49:38;;;;;;;21.25;15.75;;;3.70;99.90;;;;;;5016903;28;20189;-75
2022/12/08 12:52:19;;;;;;;17.13;14.32;;;3.60;99.90;;;;;;5013237;28;20701;-75
2022/12/08 12:55:10;;;;;;;21.05;16.25;;;3.40;99.90;;;;;;5007505;28;20936;-75